createdAt,value
2022-09-11T00:01:47.408Z,100481.53
2022-09-11T00:04:16.334Z,100488.97
2022-09-11T00:06:48.291Z,100492.63
2022-09-11T00:09:16.954Z,100499.88
2022-09-11T00:11:44.704Z,100479.56
2022-09-11T00:14:14.467Z,100486.91
2022-09-11T00:16:47.117Z,100478.06
2022-09-11T00:19:37.238Z,100489.72
2022-09-11T00:22:05.965Z,100484.63
2022-09-11T00:24:33.920Z,100488.06
2022-09-11T00:27:01.705Z,100470.88
2022-09-11T00:29:49.708Z,100493.97
2022-09-11T00:32:38.508Z,100500.66
2022-09-11T00:35:07.452Z,100499.81
2022-09-11T00:37:35.829Z,100493.44
2022-09-11T00:40:04.843Z,100504.75
2022-09-11T00:42:34.688Z,100491.19
2022-09-11T00:45:07.417Z,100493.59
2022-09-11T00:47:37.176Z,100496.41
2022-09-11T00:50:19.308Z,100496.94
2022-09-11T00:53:03.361Z,100499.63
2022-09-11T00:55:35.326Z,100478.97
2022-09-11T00:58:12.667Z,100496.94
2022-09-11T01:00:44.335Z,100491.75
2022-09-11T01:03:29.099Z,100497.16
2022-09-11T01:05:59.295Z,100492.59
2022-09-11T01:08:27.731Z,100492.53
2022-09-11T01:11:16.898Z,100487.34
2022-09-11T01:14:25.193Z,100492.06
2022-09-11T01:17:18.118Z,100494.19
2022-09-11T01:20:05.537Z,100501.53
2022-09-11T01:23:20.763Z,100499.25
2022-09-11T01:26:34.743Z,100511.94
2022-09-11T01:29:20.843Z,100505.69
2022-09-11T01:32:11.994Z,100510.13
2022-09-11T01:34:55.708Z,100513.59
2022-09-11T01:38:00.502Z,100516.22
2022-09-11T01:40:59.413Z,100514.94
2022-09-11T01:43:36.120Z,100500.25
2022-09-11T01:46:10.604Z,100503.50
2022-09-11T01:48:47.290Z,100513.59
2022-09-11T01:51:28.453Z,100525.13
2022-09-11T01:54:00.228Z,100519.91
2022-09-11T01:56:41.486Z,100529.44
2022-09-11T01:59:16.259Z,100523.16
2022-09-11T02:01:52.485Z,100516.84
2022-09-11T02:04:38.010Z,100538.88
2022-09-11T02:07:27.522Z,100523.72
2022-09-11T02:10:03.496Z,100522.78
2022-09-11T02:12:46.322Z,100532.53
2022-09-11T02:15:18.060Z,100533.19
2022-09-11T02:18:02.133Z,100509.13
2022-09-11T02:20:32.349Z,100519.72
2022-09-11T02:23:02.084Z,100522.84
2022-09-11T02:25:31.188Z,100522.78
2022-09-11T02:27:59.999Z,100512.31
2022-09-11T02:30:31.522Z,100522.06
2022-09-11T02:33:01.118Z,100524.06
2022-09-11T02:35:44.106Z,100533.28
2022-09-11T02:38:38.269Z,100514.28
2022-09-11T02:41:18.843Z,100516.25
2022-09-11T02:44:29.666Z,100528.63
2022-09-11T02:47:25.542Z,100522.59
2022-09-11T02:50:17.500Z,100527.03
2022-09-11T02:53:07.663Z,100529.81
2022-09-11T02:56:13.328Z,100532.69
2022-09-11T02:59:19.180Z,100525.56
2022-09-11T03:01:52.032Z,100524.69
2022-09-11T03:04:25.749Z,100517.16
2022-09-11T03:06:56.974Z,100541.66
2022-09-11T03:09:26.045Z,100538.16
2022-09-11T03:12:01.204Z,100534.63
2022-09-11T03:14:31.027Z,100539.34
2022-09-11T03:17:00.224Z,100538.59
2022-09-11T03:19:31.710Z,100548.88
2022-09-11T03:22:02.466Z,100551.56
2022-09-11T03:24:31.202Z,100530.06
2022-09-11T03:27:04.656Z,100545.41
2022-09-11T03:29:37.590Z,100540.97
2022-09-11T03:32:10.262Z,100540.22
2022-09-11T03:34:40.695Z,100549.81
2022-09-11T03:37:12.335Z,100546.38
2022-09-11T03:39:43.636Z,100546.50
2022-09-11T03:42:14.364Z,100551.88
2022-09-11T03:44:45.674Z,100554.66
2022-09-11T03:47:18.646Z,100538.16
2022-09-11T03:49:48.248Z,100542.25
2022-09-11T03:52:17.643Z,100553.72
2022-09-11T03:54:48.500Z,100544.09
2022-09-11T03:57:17.540Z,100552.94
2022-09-11T03:59:46.189Z,100555.63
2022-09-11T04:02:15.335Z,100561.81
2022-09-11T04:04:46.531Z,100557.66
2022-09-11T04:07:18.722Z,100564.56
2022-09-11T04:09:47.504Z,100566.03
2022-09-11T04:12:16.439Z,100577.00
2022-09-11T04:14:46.184Z,100580.56
2022-09-11T04:17:16.613Z,100569.00
2022-09-11T04:19:45.578Z,100576.03
2022-09-11T04:22:13.858Z,100575.91
2022-09-11T04:24:47.133Z,100585.72
2022-09-11T04:27:16.535Z,100585.44
2022-09-11T04:29:47.830Z,100584.53
2022-09-11T04:32:18.941Z,100565.41
2022-09-11T04:34:49.453Z,100585.09
2022-09-11T04:37:20.439Z,100591.44
2022-09-11T04:39:51.925Z,100582.59
2022-09-11T04:42:20.361Z,100587.78
2022-09-11T04:44:51.114Z,100598.34
2022-09-11T04:47:22.211Z,100595.75
2022-09-11T04:49:52.934Z,100608.19
2022-09-11T04:52:21.633Z,100609.81
2022-09-11T04:54:55.687Z,100613.19
2022-09-11T04:57:32.062Z,100612.34
2022-09-11T05:00:02.427Z,100607.03
2022-09-11T05:02:32.717Z,100609.53
2022-09-11T05:05:00.850Z,100600.56
2022-09-11T05:07:30.232Z,100616.63
2022-09-11T05:10:00.644Z,100597.28
2022-09-11T05:12:32.665Z,100611.06
2022-09-11T05:15:02.202Z,100600.47
2022-09-11T05:17:33.424Z,100610.19
2022-09-11T05:20:01.534Z,100597.41
2022-09-11T05:22:33.096Z,100604.44
2022-09-11T05:25:16.091Z,100630.59
2022-09-11T05:27:45.821Z,100626.16
2022-09-11T05:30:16.703Z,100639.56
2022-09-11T05:32:45.116Z,100638.47
2022-09-11T05:35:14.154Z,100613.94
2022-09-11T05:37:45.643Z,100636.00
2022-09-11T05:40:15.174Z,100646.25
2022-09-11T05:42:45.113Z,100639.25
2022-09-11T05:45:13.653Z,100648.84
2022-09-11T05:47:45.721Z,100648.63
2022-09-11T05:50:15.737Z,100654.03
2022-09-11T05:52:46.633Z,100662.25
2022-09-11T05:55:17.372Z,100662.69
2022-09-11T05:57:47.251Z,100670.03
2022-09-11T06:00:16.333Z,100676.94
2022-09-11T06:02:54.395Z,100678.44
2022-09-11T06:05:25.323Z,100681.06
2022-09-11T06:07:54.449Z,100682.78
2022-09-11T06:10:23.750Z,100670.28
2022-09-11T06:12:52.170Z,100686.16
2022-09-11T06:15:45.289Z,100692.00
2022-09-11T06:18:12.737Z,100692.75
2022-09-11T06:20:42.675Z,100706.03
2022-09-11T06:23:19.222Z,100699.56
2022-09-11T06:25:48.965Z,100696.84
2022-09-11T06:28:18.004Z,100704.34
2022-09-11T06:30:52.249Z,100695.47
2022-09-11T06:33:22.561Z,100704.03
2022-09-11T06:36:07.858Z,100703.72
2022-09-11T06:38:36.300Z,100714.50
2022-09-11T06:41:08.604Z,100709.59
2022-09-11T06:43:38.919Z,100715.88
2022-09-11T06:46:14.448Z,100714.66
2022-09-11T06:48:45.357Z,100721.81
2022-09-11T06:51:24.233Z,100718.34
2022-09-11T06:53:59.546Z,100699.94
2022-09-11T06:56:32.753Z,100719.97
2022-09-11T06:59:03.638Z,100711.56
2022-09-11T07:01:33.987Z,100718.56
2022-09-11T07:04:04.698Z,100722.91
2022-09-11T07:06:38.447Z,100722.69
2022-09-11T07:09:08.387Z,100729.09
2022-09-11T07:11:51.869Z,100721.97
2022-09-11T07:14:21.908Z,100728.88
2022-09-11T07:16:55.494Z,100727.38
2022-09-11T07:19:28.283Z,100716.44
2022-09-11T07:21:58.395Z,100720.22
2022-09-11T07:24:27.816Z,100719.59
2022-09-11T07:27:14.299Z,100724.09
2022-09-11T07:29:44.308Z,100719.91
2022-09-11T07:32:13.390Z,100727.69
2022-09-11T07:34:42.333Z,100715.91
2022-09-11T07:37:13.526Z,100720.63
2022-09-11T07:39:44.537Z,100733.53
2022-09-11T07:42:20.442Z,100720.84
2022-09-11T07:44:50.983Z,100718.88
2022-09-11T07:47:19.547Z,100721.00
2022-09-11T07:49:51.305Z,100719.38
2022-09-11T07:52:21.118Z,100733.72
2022-09-11T07:54:53.472Z,100736.94
2022-09-11T07:57:25.470Z,100734.69
2022-09-11T07:59:54.336Z,100739.00
2022-09-11T08:02:26.884Z,100730.03
2022-09-11T08:04:57.351Z,100739.44
2022-09-11T08:07:29.197Z,100736.06
2022-09-11T08:10:16.632Z,100739.88
2022-09-11T08:12:48.847Z,100737.16
2022-09-11T08:15:20.774Z,100746.03
2022-09-11T08:17:49.720Z,100742.56
2022-09-11T08:20:19.693Z,100747.97
2022-09-11T08:22:48.201Z,100754.25
2022-09-11T08:25:17.074Z,100756.00
2022-09-11T08:27:47.250Z,100760.09
2022-09-11T08:30:19.428Z,100753.47
2022-09-11T08:32:48.399Z,100762.72
2022-09-11T08:35:18.117Z,100754.25
2022-09-11T08:37:46.594Z,100754.38
2022-09-11T08:40:15.156Z,100747.75
2022-09-11T08:42:48.246Z,100756.56
2022-09-11T08:45:21.421Z,100761.50
2022-09-11T08:47:58.638Z,100756.38
2022-09-11T08:50:44.502Z,100755.69
2022-09-11T08:53:19.849Z,100750.91
2022-09-11T08:56:22.576Z,100761.88
2022-09-11T09:00:00.132Z,100754.53
2022-09-11T09:02:59.760Z,100749.13
2022-09-11T09:05:57.878Z,100758.59
2022-09-11T09:09:24.086Z,100757.53
2022-09-11T09:12:32.992Z,100757.19
2022-09-11T09:15:19.077Z,100756.84
2022-09-11T09:18:33.781Z,100748.81
2022-09-11T09:21:12.590Z,100757.41
2022-09-11T09:23:52.317Z,100748.13
2022-09-11T09:26:23.894Z,100757.53
2022-09-11T09:28:58.468Z,100753.56
2022-09-11T09:31:32.248Z,100758.34
2022-09-11T09:34:24.844Z,100748.75
2022-09-11T09:37:24.223Z,100763.72
2022-09-11T09:39:58.281Z,100750.47
2022-09-11T09:43:16.676Z,100761.28
2022-09-11T09:46:25.764Z,100758.97
2022-09-11T09:48:56.236Z,100756.16
2022-09-11T09:51:26.870Z,100758.13
2022-09-11T09:54:07.389Z,100754.84
2022-09-11T09:56:43.474Z,100759.78
2022-09-11T09:59:22.654Z,100754.47
2022-09-11T10:01:54.434Z,100740.69
2022-09-11T10:04:29.705Z,100755.16
2022-09-11T10:07:24.921Z,100753.41
2022-09-11T10:10:03.450Z,100752.28
2022-09-11T10:12:32.759Z,100747.81
2022-09-11T10:15:09.562Z,100741.13
2022-09-11T10:17:38.514Z,100752.28
2022-09-11T10:20:23.746Z,100757.81
2022-09-11T10:23:25.466Z,100754.44
2022-09-11T10:25:54.753Z,100754.59
2022-09-11T10:28:33.835Z,100746.00
2022-09-11T10:31:05.449Z,100755.13
2022-09-11T10:33:46.597Z,100751.81
2022-09-11T10:36:24.604Z,100741.56
2022-09-11T10:39:01.972Z,100749.94
2022-09-11T10:41:35.104Z,100753.00
2022-09-11T10:44:12.062Z,100745.84
2022-09-11T10:46:46.495Z,100739.47
2022-09-11T10:49:28.902Z,100745.31
2022-09-11T10:52:12.421Z,100752.28
2022-09-11T10:55:09.848Z,100754.09
2022-09-11T10:57:46.445Z,100752.84
2022-09-11T11:00:31.007Z,100745.41
2022-09-11T11:03:24.431Z,100748.03
2022-09-11T11:06:50.701Z,100742.91
2022-09-11T11:09:42.020Z,100753.84
2022-09-11T11:12:43.365Z,100747.69
2022-09-11T11:15:36.289Z,100744.91
2022-09-11T11:18:43.776Z,100734.50
2022-09-11T11:21:22.699Z,100739.53
2022-09-11T11:24:08.855Z,100730.28
2022-09-11T11:27:06.105Z,100729.44
2022-09-11T11:30:37.752Z,100728.63
2022-09-11T11:34:00.709Z,100730.09
2022-09-11T11:37:04.674Z,100739.69
2022-09-11T11:39:53.436Z,100733.97
2022-09-11T11:42:55.412Z,100736.00
2022-09-11T11:45:43.084Z,100739.69
2022-09-11T11:48:46.975Z,100737.41
2022-09-11T11:54:52.342Z,100739.66
2022-09-11T11:57:28.251Z,100742.66
2022-09-11T12:00:14.707Z,100734.94
2022-09-11T12:03:17.239Z,100736.94
2022-09-11T12:05:46.067Z,100730.59
2022-09-11T12:08:18.324Z,100727.47
2022-09-11T12:11:14.251Z,100728.91
2022-09-11T12:13:50.002Z,100733.63
2022-09-11T12:16:42.439Z,100731.31
2022-09-11T12:19:20.551Z,100722.72
2022-09-11T12:21:55.800Z,100735.31
2022-09-11T12:24:50.884Z,100731.03
2022-09-11T12:27:41.193Z,100734.00
2022-09-11T12:30:32.385Z,100740.22
2022-09-11T12:33:03.351Z,100742.72
2022-09-11T12:35:54.642Z,100739.84
2022-09-11T12:38:39.023Z,100731.63
2022-09-11T12:41:29.009Z,100728.63
2022-09-11T12:44:02.794Z,100728.91
2022-09-11T12:46:44.379Z,100729.75
2022-09-11T12:49:25.675Z,100734.19
2022-09-11T12:52:04.524Z,100727.91
2022-09-11T12:54:43.797Z,100731.84
2022-09-11T12:57:29.182Z,100730.28
2022-09-11T13:00:02.680Z,100727.00
2022-09-11T13:02:45.690Z,100724.59
2022-09-11T13:05:35.081Z,100719.44
2022-09-11T13:08:15.230Z,100716.13
2022-09-11T13:10:48.102Z,100709.56
2022-09-11T13:13:37.549Z,100707.28
2022-09-11T13:16:28.925Z,100703.41
2022-09-11T13:19:22.013Z,100705.28
2022-09-11T13:21:53.795Z,100700.28
2022-09-11T13:24:31.984Z,100702.72
2022-09-11T13:27:13.731Z,100693.97
2022-09-11T13:29:43.214Z,100696.69
2022-09-11T13:32:17.839Z,100693.28
2022-09-11T13:34:53.258Z,100691.84
2022-09-11T13:37:34.127Z,100689.28
2022-09-11T13:40:05.971Z,100686.69
2022-09-11T13:42:36.241Z,100682.72
2022-09-11T13:45:11.031Z,100677.53
2022-09-11T13:47:42.596Z,100679.13
2022-09-11T13:50:18.037Z,100676.41
2022-09-11T13:52:48.427Z,100668.50
2022-09-11T13:55:23.188Z,100675.13
2022-09-11T13:58:04.308Z,100668.94
2022-09-11T14:00:48.993Z,100677.53
2022-09-11T14:03:23.486Z,100664.34
2022-09-11T14:06:09.322Z,100660.06
2022-09-11T14:08:50.543Z,100654.59
2022-09-11T14:11:46.573Z,100666.06
2022-09-11T14:14:28.300Z,100651.16
2022-09-11T14:17:01.903Z,100646.25
2022-09-11T14:19:36.583Z,100650.72
2022-09-11T14:22:22.775Z,100641.97
2022-09-11T14:25:10.674Z,100644.69
2022-09-11T14:27:43.516Z,100650.28
2022-09-11T14:30:25.812Z,100638.38
2022-09-11T14:33:21.923Z,100636.94
2022-09-11T14:35:52.776Z,100636.50
2022-09-11T14:38:23.893Z,100622.59
2022-09-11T14:41:00.692Z,100625.63
2022-09-11T14:43:32.883Z,100638.38
2022-09-11T14:46:03.003Z,100617.03
2022-09-11T14:48:35.843Z,100620.59
2022-09-11T14:51:13.262Z,100640.25
2022-09-11T14:53:43.654Z,100618.75
2022-09-11T14:56:12.699Z,100605.56
2022-09-11T14:58:40.678Z,100604.28
2022-09-11T15:01:14.015Z,100621.63
2022-09-11T15:03:42.757Z,100618.19
2022-09-11T15:06:19.674Z,100611.72
2022-09-11T15:08:48.849Z,100612.59
2022-09-11T15:11:18.586Z,100621.63
2022-09-11T15:14:13.537Z,100610.31
2022-09-11T15:16:38.068Z,100606.16
2022-09-11T15:19:06.037Z,100621.31
2022-09-11T15:21:37.605Z,100610.59
2022-09-11T15:24:07.069Z,100617.19
2022-09-11T15:26:38.797Z,100611.28
2022-09-11T15:29:10.468Z,100611.28
2022-09-11T15:31:39.555Z,100603.41
2022-09-11T15:34:07.917Z,100611.75
2022-09-11T15:36:40.457Z,100602.69
2022-09-11T15:39:16.586Z,100596.38
2022-09-11T15:41:49.184Z,100599.41
2022-09-11T15:44:25.660Z,100601.13
2022-09-11T15:46:57.362Z,100595.09
2022-09-11T15:49:29.576Z,100578.06
2022-09-11T15:52:00.165Z,100593.66
2022-09-11T15:54:28.707Z,100603.69
2022-09-11T15:56:58.910Z,100577.75
2022-09-11T15:59:27.655Z,100573.91
2022-09-11T16:01:56.483Z,100577.75
2022-09-11T16:04:28.794Z,100579.94
2022-09-11T16:06:59.327Z,100574.06
2022-09-11T16:09:32.586Z,100563.72
2022-09-11T16:12:02.042Z,100577.47
2022-09-11T16:14:35.213Z,100578.63
2022-09-11T16:17:05.877Z,100575.31
2022-09-11T16:19:36.719Z,100584.19
2022-09-11T16:22:06.266Z,100591.50
2022-09-11T16:24:37.781Z,100580.19
2022-09-11T16:27:10.327Z,100580.19
2022-09-11T16:32:29.462Z,100559.22
2022-09-11T16:34:59.841Z,100580.88
2022-09-11T16:37:29.414Z,100581.13
2022-09-11T16:39:58.821Z,100582.41
2022-09-11T16:42:26.953Z,100587.84
2022-09-11T16:44:55.587Z,100577.41
2022-09-11T16:47:24.280Z,100585.69
2022-09-11T16:50:09.302Z,100583.41
2022-09-11T16:52:39.495Z,100589.09
2022-09-11T16:55:10.148Z,100581.25
2022-09-11T16:57:40.145Z,100577.34
2022-09-11T17:00:10.218Z,100573.31
2022-09-11T17:02:38.882Z,100574.31
2022-09-11T17:05:09.434Z,100572.88
2022-09-11T17:07:37.276Z,100577.72
2022-09-11T17:10:05.893Z,100569.84
2022-09-11T17:12:34.037Z,100580.13
2022-09-11T17:15:03.047Z,100578.69
2022-09-11T17:17:32.298Z,100569.84
2022-09-11T17:20:01.708Z,100571.72
2022-09-11T17:22:30.179Z,100571.25
2022-09-11T17:25:01.581Z,100579.81
2022-09-11T17:27:31.805Z,100575.78
2022-09-11T17:30:01.036Z,100575.47
2022-09-11T17:32:31.270Z,100576.03
2022-09-11T17:34:59.730Z,100578.69
2022-09-11T17:37:28.635Z,100577.47
2022-09-11T17:40:01.825Z,100586.31
2022-09-11T17:42:30.343Z,100582.88
2022-09-11T17:45:00.773Z,100579.69
2022-09-11T17:47:33.552Z,100589.47
2022-09-11T17:50:03.114Z,100592.88
2022-09-11T17:52:34.619Z,100584.75
2022-09-11T17:55:06.492Z,100586.13
2022-09-11T17:57:35.272Z,100590.59
2022-09-11T18:00:06.526Z,100589.88
2022-09-11T18:02:45.424Z,100598.53
2022-09-11T18:05:13.578Z,100582.25
2022-09-11T18:07:42.942Z,100585.09
2022-09-11T18:10:11.413Z,100585.59
2022-09-11T18:12:40.904Z,100593.34
2022-09-11T18:15:10.318Z,100592.00
2022-09-11T18:17:39.767Z,100588.19
2022-09-11T18:20:10.077Z,100597.97
2022-09-11T18:22:39.897Z,100588.09
2022-09-11T18:25:09.936Z,100594.03
2022-09-11T18:27:40.837Z,100590.94
2022-09-11T18:30:36.574Z,100596.94
2022-09-11T18:33:21.397Z,100596.66
2022-09-11T18:36:10.698Z,100589.53
2022-09-11T18:38:40.918Z,100582.50
2022-09-11T18:41:10.279Z,100581.63
2022-09-11T18:44:05.980Z,100595.88
2022-09-11T18:46:37.699Z,100590.88
2022-09-11T18:49:09.485Z,100580.00
2022-09-11T18:51:38.287Z,100586.91
2022-09-11T18:54:07.484Z,100596.13
2022-09-11T18:56:36.476Z,100597.84
2022-09-11T18:59:25.138Z,100584.03
2022-09-11T19:01:53.857Z,100597.94
2022-09-11T19:04:24.350Z,100596.22
2022-09-11T19:06:54.783Z,100588.59
2022-09-11T19:09:26.690Z,100599.91
2022-09-11T19:11:55.662Z,100610.50
2022-09-11T19:14:27.193Z,100599.13
2022-09-11T19:17:00.309Z,100596.03
2022-09-11T19:19:31.126Z,100601.91
2022-09-11T19:22:00.891Z,100600.88
2022-09-11T19:24:30.337Z,100602.47
2022-09-11T19:27:00.173Z,100611.44
2022-09-11T19:29:28.658Z,100596.03
2022-09-11T19:31:57.468Z,100601.22
2022-09-11T19:34:25.502Z,100610.94
2022-09-11T19:36:54.326Z,100606.75
2022-09-11T19:39:23.545Z,100589.38
2022-09-11T19:41:53.162Z,100606.34
2022-09-11T19:44:21.378Z,100612.00
2022-09-11T19:46:54.127Z,100604.22
2022-09-11T19:49:23.850Z,100608.13
2022-09-11T19:51:54.530Z,100604.63
2022-09-11T19:54:24.551Z,100610.38
2022-09-11T19:56:53.814Z,100616.84
2022-09-11T19:59:21.536Z,100616.34
2022-09-11T20:01:50.080Z,100612.44
2022-09-11T20:04:19.051Z,100616.03
2022-09-11T20:09:30.921Z,100597.47
2022-09-11T20:12:01.810Z,100621.47
2022-09-11T20:14:31.350Z,100618.00
2022-09-11T20:17:01.048Z,100627.19
2022-09-11T20:19:30.150Z,100632.69
2022-09-11T20:22:00.351Z,100630.09
2022-09-11T20:24:28.426Z,100619.09
2022-09-11T20:26:56.918Z,100629.16
2022-09-11T20:29:25.393Z,100626.66
2022-09-11T20:31:56.163Z,100622.56
2022-09-11T20:34:30.156Z,100618.34
2022-09-11T20:37:01.100Z,100606.25
2022-09-11T20:39:29.393Z,100609.16
2022-09-11T20:41:57.775Z,100614.56
2022-09-11T20:44:27.891Z,100611.97
2022-09-11T20:46:56.042Z,100610.47
2022-09-11T20:49:25.330Z,100588.19
2022-09-11T20:51:53.735Z,100602.22
2022-09-11T20:54:22.404Z,100610.66
2022-09-11T20:56:51.196Z,100618.94
2022-09-11T20:59:19.722Z,100610.50
2022-09-11T21:01:49.324Z,100608.78
2022-09-11T21:04:18.518Z,100612.34
2022-09-11T21:06:48.860Z,100582.75
2022-09-11T21:12:03.737Z,100605.66
2022-09-11T21:14:32.331Z,100612.41
2022-09-11T21:17:02.213Z,100604.00
2022-09-11T21:19:32.163Z,100597.84
2022-09-11T21:22:01.097Z,100599.91
2022-09-11T21:24:28.885Z,100605.78
2022-09-11T21:26:57.504Z,100601.50
2022-09-11T21:29:26.159Z,100590.03
2022-09-11T21:31:55.132Z,100601.69
2022-09-11T21:34:24.052Z,100607.19
2022-09-11T21:36:54.491Z,100605.66
2022-09-11T21:39:23.403Z,100589.13
2022-09-11T21:41:52.407Z,100595.56
2022-09-11T21:44:22.132Z,100608.66
2022-09-11T21:46:50.285Z,100586.25
2022-09-11T21:49:19.078Z,100586.06
2022-09-11T21:51:47.423Z,100590.47
2022-09-11T21:54:15.374Z,100596.63
2022-09-11T21:56:44.324Z,100601.25
2022-09-11T21:59:14.046Z,100597.72
2022-09-11T22:01:42.863Z,100592.50
2022-09-11T22:04:10.979Z,100582.22
2022-09-11T22:06:40.167Z,100588.09
2022-09-11T22:09:09.149Z,100592.91
2022-09-11T22:11:37.555Z,100587.84
2022-09-11T22:14:06.183Z,100586.50
2022-09-11T22:16:34.516Z,100592.78
2022-09-11T22:19:02.887Z,100599.31
2022-09-11T22:21:30.730Z,100592.28
2022-09-11T22:23:58.543Z,100590.44
2022-09-11T22:26:26.413Z,100584.31
2022-09-11T22:28:54.469Z,100577.59
2022-09-11T22:31:25.465Z,100597.56
2022-09-11T22:33:56.209Z,100579.41
2022-09-11T22:36:28.971Z,100588.28
2022-09-11T22:38:59.061Z,100596.25
2022-09-11T22:41:27.554Z,100589.25
2022-09-11T22:43:55.886Z,100579.06
2022-09-11T22:46:27.101Z,100583.25
2022-09-11T22:48:56.853Z,100586.94
2022-09-11T22:51:25.636Z,100580.97
2022-09-11T22:53:54.476Z,100592.53
2022-09-11T22:56:24.125Z,100585.69
2022-09-11T22:58:54.641Z,100589.47
2022-09-11T23:01:24.909Z,100586.03
2022-09-11T23:03:53.947Z,100569.00
2022-09-11T23:06:40.578Z,100586.59
2022-09-11T23:09:18.518Z,100585.53
2022-09-11T23:11:47.513Z,100577.66
2022-09-11T23:14:17.159Z,100557.47
2022-09-11T23:16:45.465Z,100576.59
2022-09-11T23:19:15.027Z,100554.88
2022-09-11T23:21:43.534Z,100581.97
2022-09-11T23:24:14.405Z,100574.84
2022-09-11T23:26:43.674Z,100568.69
2022-09-11T23:29:14.835Z,100575.84
2022-09-11T23:31:44.242Z,100572.16
2022-09-11T23:34:16.217Z,100557.91
2022-09-11T23:36:44.788Z,100568.50
2022-09-11T23:39:12.708Z,100573.13
2022-09-11T23:41:40.704Z,100568.03
2022-09-11T23:44:09.500Z,100553.69
2022-09-11T23:46:38.157Z,100553.88
2022-09-11T23:49:07.385Z,100558.22
2022-09-11T23:51:35.346Z,100554.75
2022-09-11T23:54:04.705Z,100561.66
2022-09-11T23:56:33.149Z,100548.72
2022-09-11T23:59:01.203Z,100558.50
